sensor_id;sensor_type;location;lat;lon;timestamp;P1;durP1;ratioP1;P2;durP2;ratioP2
7883;SDS011;3987;51.458;7.238;2022-08-03T00:01:39;2.20;;;2.10;;
7883;SDS011;3987;51.458;7.238;2022-08-03T00:04:05;2.50;;;2.40;;
7883;SDS011;3987;51.458;7.238;2022-08-03T00:06:32;3.10;;;2.77;;
7883;SDS011;3987;51.458;7.238;2022-08-03T00:08:57;2.70;;;2.23;;
7883;SDS011;3987;51.458;7.238;2022-08-03T00:11:23;4.63;;;2.63;;
7883;SDS011;3987;51.458;7.238;2022-08-03T00:13:48;2.43;;;2.33;;
7883;SDS011;3987;51.458;7.238;2022-08-03T00:16:14;2.53;;;2.50;;
7883;SDS011;3987;51.458;7.238;2022-08-03T00:18:40;3.90;;;2.70;;
7883;SDS011;3987;51.458;7.238;2022-08-03T00:21:06;2.17;;;2.10;;
7883;SDS011;3987;51.458;7.238;2022-08-03T00:23:31;2.43;;;2.23;;
7883;SDS011;3987;51.458;7.238;2022-08-03T00:25:57;1.97;;;1.90;;
7883;SDS011;3987;51.458;7.238;2022-08-03T00:28:22;2.27;;;2.13;;
7883;SDS011;3987;51.458;7.238;2022-08-03T00:30:47;2.67;;;2.33;;
7883;SDS011;3987;51.458;7.238;2022-08-03T00:33:13;2.73;;;2.67;;
7883;SDS011;3987;51.458;7.238;2022-08-03T00:35:39;2.20;;;2.20;;
7883;SDS011;3987;51.458;7.238;2022-08-03T00:38:04;2.70;;;2.60;;
7883;SDS011;3987;51.458;7.238;2022-08-03T00:40:30;2.50;;;2.40;;
7883;SDS011;3987;51.458;7.238;2022-08-03T00:45:43;4.10;;;2.43;;
7883;SDS011;3987;51.458;7.238;2022-08-03T00:48:10;2.50;;;2.40;;
7883;SDS011;3987;51.458;7.238;2022-08-03T00:50:38;2.90;;;2.30;;
7883;SDS011;3987;51.458;7.238;2022-08-03T00:53:05;2.30;;;2.17;;
7883;SDS011;3987;51.458;7.238;2022-08-03T00:55:31;2.20;;;2.00;;
7883;SDS011;3987;51.458;7.238;2022-08-03T00:57:57;3.70;;;2.40;;
7883;SDS011;3987;51.458;7.238;2022-08-03T01:00:24;2.70;;;2.60;;
7883;SDS011;3987;51.458;7.238;2022-08-03T01:02:50;2.23;;;2.23;;
7883;SDS011;3987;51.458;7.238;2022-08-03T01:05:16;2.40;;;2.30;;
7883;SDS011;3987;51.458;7.238;2022-08-03T01:07:55;1.90;;;1.90;;
7883;SDS011;3987;51.458;7.238;2022-08-03T01:10:35;2.73;;;2.53;;
7883;SDS011;3987;51.458;7.238;2022-08-03T01:16:02;2.37;;;2.03;;
7883;SDS011;3987;51.458;7.238;2022-08-03T01:18:35;2.50;;;2.40;;
7883;SDS011;3987;51.458;7.238;2022-08-03T01:21:07;2.63;;;2.53;;
7883;SDS011;3987;51.458;7.238;2022-08-03T01:23:39;2.73;;;2.43;;
7883;SDS011;3987;51.458;7.238;2022-08-03T01:32:11;2.47;;;2.47;;
7883;SDS011;3987;51.458;7.238;2022-08-03T01:34:46;2.27;;;2.17;;
7883;SDS011;3987;51.458;7.238;2022-08-03T01:37:25;2.70;;;2.60;;
7883;SDS011;3987;51.458;7.238;2022-08-03T01:39:57;2.50;;;2.40;;
7883;SDS011;3987;51.458;7.238;2022-08-03T01:42:22;2.10;;;2.00;;
7883;SDS011;3987;51.458;7.238;2022-08-03T01:44:49;2.83;;;2.73;;
7883;SDS011;3987;51.458;7.238;2022-08-03T01:47:16;2.30;;;2.20;;
7883;SDS011;3987;51.458;7.238;2022-08-03T01:49:44;2.57;;;2.27;;
7883;SDS011;3987;51.458;7.238;2022-08-03T01:52:10;2.40;;;2.30;;
7883;SDS011;3987;51.458;7.238;2022-08-03T01:54:41;3.27;;;2.47;;
7883;SDS011;3987;51.458;7.238;2022-08-03T01:57:07;2.30;;;2.20;;
7883;SDS011;3987;51.458;7.238;2022-08-03T01:59:34;2.20;;;2.20;;
7883;SDS011;3987;51.458;7.238;2022-08-03T02:02:00;2.10;;;2.10;;
7883;SDS011;3987;51.458;7.238;2022-08-03T02:04:27;2.77;;;2.67;;
7883;SDS011;3987;51.458;7.238;2022-08-03T02:06:53;3.23;;;2.13;;
7883;SDS011;3987;51.458;7.238;2022-08-03T02:09:19;3.23;;;2.97;;
7883;SDS011;3987;51.458;7.238;2022-08-03T02:11:46;2.27;;;2.27;;
7883;SDS011;3987;51.458;7.238;2022-08-03T02:14:12;2.80;;;2.70;;
7883;SDS011;3987;51.458;7.238;2022-08-03T02:16:38;2.53;;;2.43;;
7883;SDS011;3987;51.458;7.238;2022-08-03T02:19:04;3.83;;;2.60;;
7883;SDS011;3987;51.458;7.238;2022-08-03T02:21:31;2.47;;;2.37;;
7883;SDS011;3987;51.458;7.238;2022-08-03T02:23:57;2.60;;;2.47;;
7883;SDS011;3987;51.458;7.238;2022-08-03T02:26:23;3.03;;;2.50;;
7883;SDS011;3987;51.458;7.238;2022-08-03T02:28:53;3.20;;;3.10;;
7883;SDS011;3987;51.458;7.238;2022-08-03T02:31:22;2.57;;;2.47;;
7883;SDS011;3987;51.458;7.238;2022-08-03T02:33:52;3.13;;;2.77;;
7883;SDS011;3987;51.458;7.238;2022-08-03T02:36:27;2.90;;;2.70;;
7883;SDS011;3987;51.458;7.238;2022-08-03T02:38:56;2.73;;;2.63;;
7883;SDS011;3987;51.458;7.238;2022-08-03T02:41:24;2.90;;;2.77;;
7883;SDS011;3987;51.458;7.238;2022-08-03T02:43:53;2.90;;;2.60;;
7883;SDS011;3987;51.458;7.238;2022-08-03T02:46:22;3.53;;;2.63;;
7883;SDS011;3987;51.458;7.238;2022-08-03T02:48:49;2.90;;;2.60;;
7883;SDS011;3987;51.458;7.238;2022-08-03T02:51:16;2.63;;;2.53;;
7883;SDS011;3987;51.458;7.238;2022-08-03T02:53:43;2.77;;;2.67;;
7883;SDS011;3987;51.458;7.238;2022-08-03T02:56:09;3.67;;;2.93;;
7883;SDS011;3987;51.458;7.238;2022-08-03T02:58:35;3.13;;;3.03;;
7883;SDS011;3987;51.458;7.238;2022-08-03T03:01:01;2.90;;;2.80;;
7883;SDS011;3987;51.458;7.238;2022-08-03T03:03:27;3.20;;;3.00;;
7883;SDS011;3987;51.458;7.238;2022-08-03T03:05:53;2.83;;;2.57;;
7883;SDS011;3987;51.458;7.238;2022-08-03T03:08:19;2.80;;;2.70;;
7883;SDS011;3987;51.458;7.238;2022-08-03T03:10:45;3.03;;;2.93;;
7883;SDS011;3987;51.458;7.238;2022-08-03T03:13:11;2.87;;;2.77;;
7883;SDS011;3987;51.458;7.238;2022-08-03T03:15:38;3.13;;;3.03;;
7883;SDS011;3987;51.458;7.238;2022-08-03T03:18:04;3.07;;;2.87;;
7883;SDS011;3987;51.458;7.238;2022-08-03T03:20:30;2.73;;;2.63;;
7883;SDS011;3987;51.458;7.238;2022-08-03T03:22:58;3.40;;;3.20;;
7883;SDS011;3987;51.458;7.238;2022-08-03T03:25:24;2.90;;;2.63;;
7883;SDS011;3987;51.458;7.238;2022-08-03T03:27:50;3.37;;;3.17;;
7883;SDS011;3987;51.458;7.238;2022-08-03T03:30:16;4.77;;;3.40;;
7883;SDS011;3987;51.458;7.238;2022-08-03T03:32:41;3.33;;;3.10;;
7883;SDS011;3987;51.458;7.238;2022-08-03T03:35:07;2.80;;;2.80;;
7883;SDS011;3987;51.458;7.238;2022-08-03T03:37:32;3.03;;;2.87;;
7883;SDS011;3987;51.458;7.238;2022-08-03T03:39:58;3.17;;;3.00;;
7883;SDS011;3987;51.458;7.238;2022-08-03T03:42:24;3.43;;;3.17;;
7883;SDS011;3987;51.458;7.238;2022-08-03T03:44:49;3.13;;;2.93;;
7883;SDS011;3987;51.458;7.238;2022-08-03T03:47:15;3.00;;;2.90;;
7883;SDS011;3987;51.458;7.238;2022-08-03T03:49:40;2.63;;;2.40;;
7883;SDS011;3987;51.458;7.238;2022-08-03T03:52:07;2.90;;;2.80;;
7883;SDS011;3987;51.458;7.238;2022-08-03T03:54:42;3.63;;;3.50;;
7883;SDS011;3987;51.458;7.238;2022-08-03T03:57:09;4.30;;;3.03;;
7883;SDS011;3987;51.458;7.238;2022-08-03T03:59:39;3.27;;;2.93;;
7883;SDS011;3987;51.458;7.238;2022-08-03T04:02:06;3.37;;;3.17;;
7883;SDS011;3987;51.458;7.238;2022-08-03T04:04:33;4.00;;;3.87;;
7883;SDS011;3987;51.458;7.238;2022-08-03T04:07:17;3.70;;;3.57;;
7883;SDS011;3987;51.458;7.238;2022-08-03T04:10:03;3.90;;;3.70;;
7883;SDS011;3987;51.458;7.238;2022-08-03T04:12:50;4.00;;;3.70;;
7883;SDS011;3987;51.458;7.238;2022-08-03T04:15:19;3.20;;;3.10;;
7883;SDS011;3987;51.458;7.238;2022-08-03T04:17:46;3.30;;;3.20;;
7883;SDS011;3987;51.458;7.238;2022-08-03T04:20:14;3.67;;;3.53;;
7883;SDS011;3987;51.458;7.238;2022-08-03T04:22:40;4.23;;;4.10;;
7883;SDS011;3987;51.458;7.238;2022-08-03T04:25:08;4.17;;;3.97;;
7883;SDS011;3987;51.458;7.238;2022-08-03T04:27:35;4.43;;;4.13;;
7883;SDS011;3987;51.458;7.238;2022-08-03T04:30:03;6.83;;;4.67;;
7883;SDS011;3987;51.458;7.238;2022-08-03T04:32:29;5.23;;;4.73;;
7883;SDS011;3987;51.458;7.238;2022-08-03T04:34:55;4.80;;;4.57;;
7883;SDS011;3987;51.458;7.238;2022-08-03T04:37:54;4.87;;;4.47;;
7883;SDS011;3987;51.458;7.238;2022-08-03T04:40:14;4.50;;;4.20;;
7883;SDS011;3987;51.458;7.238;2022-08-03T04:42:42;4.53;;;4.13;;
7883;SDS011;3987;51.458;7.238;2022-08-03T04:45:10;5.17;;;4.70;;
7883;SDS011;3987;51.458;7.238;2022-08-03T04:47:37;4.30;;;4.10;;
7883;SDS011;3987;51.458;7.238;2022-08-03T04:50:03;4.73;;;4.43;;
7883;SDS011;3987;51.458;7.238;2022-08-03T04:52:29;5.77;;;5.17;;
7883;SDS011;3987;51.458;7.238;2022-08-03T04:54:54;4.60;;;4.30;;
7883;SDS011;3987;51.458;7.238;2022-08-03T04:57:20;4.90;;;4.53;;
7883;SDS011;3987;51.458;7.238;2022-08-03T04:59:46;5.20;;;4.63;;
7883;SDS011;3987;51.458;7.238;2022-08-03T05:02:13;5.17;;;4.80;;
7883;SDS011;3987;51.458;7.238;2022-08-03T05:04:40;8.27;;;4.77;;
7883;SDS011;3987;51.458;7.238;2022-08-03T05:07:10;5.20;;;4.80;;
7883;SDS011;3987;51.458;7.238;2022-08-03T05:09:39;5.73;;;5.10;;
7883;SDS011;3987;51.458;7.238;2022-08-03T05:12:04;4.83;;;4.07;;
7883;SDS011;3987;51.458;7.238;2022-08-03T05:14:31;4.30;;;4.00;;
7883;SDS011;3987;51.458;7.238;2022-08-03T05:16:57;4.47;;;4.10;;
7883;SDS011;3987;51.458;7.238;2022-08-03T05:19:22;4.10;;;3.90;;
7883;SDS011;3987;51.458;7.238;2022-08-03T05:21:48;3.97;;;3.77;;
7883;SDS011;3987;51.458;7.238;2022-08-03T05:24:13;4.07;;;3.73;;
7883;SDS011;3987;51.458;7.238;2022-08-03T05:26:38;3.40;;;3.30;;
7883;SDS011;3987;51.458;7.238;2022-08-03T05:29:04;2.70;;;2.50;;
7883;SDS011;3987;51.458;7.238;2022-08-03T05:31:29;3.00;;;2.50;;
7883;SDS011;3987;51.458;7.238;2022-08-03T05:33:55;1.77;;;1.77;;
7883;SDS011;3987;51.458;7.238;2022-08-03T05:36:21;2.43;;;1.80;;
7883;SDS011;3987;51.458;7.238;2022-08-03T05:38:46;2.30;;;1.57;;
7883;SDS011;3987;51.458;7.238;2022-08-03T05:41:12;1.97;;;1.80;;
7883;SDS011;3987;51.458;7.238;2022-08-03T05:43:37;1.73;;;1.50;;
7883;SDS011;3987;51.458;7.238;2022-08-03T05:46:02;1.80;;;1.80;;
7883;SDS011;3987;51.458;7.238;2022-08-03T05:48:28;2.40;;;2.20;;
7883;SDS011;3987;51.458;7.238;2022-08-03T05:50:53;1.77;;;1.67;;
7883;SDS011;3987;51.458;7.238;2022-08-03T05:53:19;1.93;;;1.83;;
7883;SDS011;3987;51.458;7.238;2022-08-03T05:55:44;1.73;;;1.63;;
7883;SDS011;3987;51.458;7.238;2022-08-03T05:58:09;2.77;;;1.73;;
7883;SDS011;3987;51.458;7.238;2022-08-03T06:00:35;4.07;;;2.03;;
7883;SDS011;3987;51.458;7.238;2022-08-03T06:03:00;2.23;;;2.13;;
7883;SDS011;3987;51.458;7.238;2022-08-03T06:05:26;2.67;;;2.27;;
7883;SDS011;3987;51.458;7.238;2022-08-03T06:07:52;2.63;;;2.20;;
7883;SDS011;3987;51.458;7.238;2022-08-03T06:10:18;2.70;;;2.30;;
7883;SDS011;3987;51.458;7.238;2022-08-03T06:12:44;2.37;;;2.17;;
7883;SDS011;3987;51.458;7.238;2022-08-03T06:15:11;2.50;;;2.30;;
7883;SDS011;3987;51.458;7.238;2022-08-03T06:17:47;2.63;;;2.43;;
7883;SDS011;3987;51.458;7.238;2022-08-03T06:20:14;2.83;;;2.63;;
7883;SDS011;3987;51.458;7.238;2022-08-03T06:22:41;4.20;;;2.70;;
7883;SDS011;3987;51.458;7.238;2022-08-03T06:25:06;2.27;;;2.13;;
7883;SDS011;3987;51.458;7.238;2022-08-03T06:27:32;3.40;;;2.70;;
7883;SDS011;3987;51.458;7.238;2022-08-03T06:29:57;4.57;;;2.53;;
7883;SDS011;3987;51.458;7.238;2022-08-03T06:32:23;2.80;;;2.53;;
7883;SDS011;3987;51.458;7.238;2022-08-03T06:34:48;2.63;;;2.50;;
7883;SDS011;3987;51.458;7.238;2022-08-03T06:37:14;2.90;;;2.40;;
7883;SDS011;3987;51.458;7.238;2022-08-03T06:39:39;2.80;;;2.60;;
7883;SDS011;3987;51.458;7.238;2022-08-03T06:42:04;2.97;;;2.73;;
7883;SDS011;3987;51.458;7.238;2022-08-03T06:44:31;2.97;;;2.77;;
7883;SDS011;3987;51.458;7.238;2022-08-03T06:46:57;2.97;;;2.27;;
7883;SDS011;3987;51.458;7.238;2022-08-03T06:49:22;2.47;;;2.37;;
7883;SDS011;3987;51.458;7.238;2022-08-03T06:51:48;4.27;;;2.57;;
7883;SDS011;3987;51.458;7.238;2022-08-03T06:54:16;2.70;;;2.40;;
7883;SDS011;3987;51.458;7.238;2022-08-03T06:56:42;1.90;;;1.80;;
7883;SDS011;3987;51.458;7.238;2022-08-03T06:59:07;3.23;;;2.40;;
7883;SDS011;3987;51.458;7.238;2022-08-03T07:01:32;3.40;;;1.93;;
7883;SDS011;3987;51.458;7.238;2022-08-03T07:03:58;2.27;;;2.07;;
7883;SDS011;3987;51.458;7.238;2022-08-03T07:06:24;3.37;;;2.40;;
7883;SDS011;3987;51.458;7.238;2022-08-03T07:08:50;2.27;;;2.10;;
7883;SDS011;3987;51.458;7.238;2022-08-03T07:11:15;2.93;;;2.40;;
7883;SDS011;3987;51.458;7.238;2022-08-03T07:13:41;2.03;;;1.87;;
7883;SDS011;3987;51.458;7.238;2022-08-03T07:16:07;2.30;;;2.10;;
7883;SDS011;3987;51.458;7.238;2022-08-03T07:18:33;1.87;;;1.77;;
7883;SDS011;3987;51.458;7.238;2022-08-03T07:21:01;2.93;;;2.07;;
7883;SDS011;3987;51.458;7.238;2022-08-03T07:23:27;2.20;;;1.90;;
7883;SDS011;3987;51.458;7.238;2022-08-03T07:25:52;1.97;;;1.87;;
7883;SDS011;3987;51.458;7.238;2022-08-03T07:28:18;2.00;;;1.75;;
7883;SDS011;3987;51.458;7.238;2022-08-03T07:30:44;2.10;;;1.97;;
7883;SDS011;3987;51.458;7.238;2022-08-03T07:33:09;3.00;;;1.73;;
7883;SDS011;3987;51.458;7.238;2022-08-03T07:35:34;3.53;;;1.65;;
7883;SDS011;3987;51.458;7.238;2022-08-03T07:38:00;3.53;;;1.63;;
7883;SDS011;3987;51.458;7.238;2022-08-03T07:40:25;3.17;;;1.80;;
7883;SDS011;3987;51.458;7.238;2022-08-03T07:42:51;4.35;;;2.33;;
7883;SDS011;3987;51.458;7.238;2022-08-03T07:45:16;3.22;;;1.95;;
7883;SDS011;3987;51.458;7.238;2022-08-03T07:47:41;2.17;;;2.08;;
7883;SDS011;3987;51.458;7.238;2022-08-03T07:50:07;3.80;;;1.73;;
7883;SDS011;3987;51.458;7.238;2022-08-03T07:52:32;1.73;;;1.73;;
7883;SDS011;3987;51.458;7.238;2022-08-03T07:55:18;1.80;;;1.70;;
7883;SDS011;3987;51.458;7.238;2022-08-03T07:57:45;1.95;;;1.85;;
7883;SDS011;3987;51.458;7.238;2022-08-03T08:00:13;4.55;;;1.98;;
7883;SDS011;3987;51.458;7.238;2022-08-03T08:02:42;2.55;;;1.67;;
7883;SDS011;3987;51.458;7.238;2022-08-03T08:05:08;1.67;;;1.60;;
7883;SDS011;3987;51.458;7.238;2022-08-03T08:07:34;1.23;;;1.13;;
7883;SDS011;3987;51.458;7.238;2022-08-03T08:10:00;2.55;;;1.38;;
7883;SDS011;3987;51.458;7.238;2022-08-03T08:12:26;1.55;;;1.55;;
7883;SDS011;3987;51.458;7.238;2022-08-03T08:14:51;1.77;;;1.45;;
7883;SDS011;3987;51.458;7.238;2022-08-03T08:17:16;3.80;;;1.67;;
7883;SDS011;3987;51.458;7.238;2022-08-03T08:19:43;2.10;;;1.48;;
7883;SDS011;3987;51.458;7.238;2022-08-03T08:22:09;2.00;;;1.90;;
7883;SDS011;3987;51.458;7.238;2022-08-03T08:24:34;2.42;;;1.67;;
7883;SDS011;3987;51.458;7.238;2022-08-03T08:27:00;1.25;;;1.25;;
7883;SDS011;3987;51.458;7.238;2022-08-03T08:29:25;1.83;;;1.05;;
7883;SDS011;3987;51.458;7.238;2022-08-03T08:31:51;1.40;;;1.30;;
7883;SDS011;3987;51.458;7.238;2022-08-03T08:34:16;5.28;;;1.40;;
7883;SDS011;3987;51.458;7.238;2022-08-03T08:36:42;1.67;;;1.30;;
7883;SDS011;3987;51.458;7.238;2022-08-03T08:39:07;2.40;;;1.25;;
7883;SDS011;3987;51.458;7.238;2022-08-03T08:41:33;1.50;;;1.40;;
7883;SDS011;3987;51.458;7.238;2022-08-03T08:43:59;3.35;;;1.50;;
7883;SDS011;3987;51.458;7.238;2022-08-03T08:46:25;1.20;;;1.20;;
7883;SDS011;3987;51.458;7.238;2022-08-03T08:48:52;2.75;;;1.58;;
7883;SDS011;3987;51.458;7.238;2022-08-03T08:51:18;1.42;;;1.42;;
7883;SDS011;3987;51.458;7.238;2022-08-03T08:53:47;1.50;;;1.40;;
7883;SDS011;3987;51.458;7.238;2022-08-03T08:56:14;2.45;;;1.52;;
7883;SDS011;3987;51.458;7.238;2022-08-03T08:58:41;1.33;;;1.33;;
7883;SDS011;3987;51.458;7.238;2022-08-03T09:01:12;2.78;;;1.70;;
7883;SDS011;3987;51.458;7.238;2022-08-03T09:03:37;1.70;;;1.63;;
7883;SDS011;3987;51.458;7.238;2022-08-03T09:06:03;1.23;;;1.23;;
7883;SDS011;3987;51.458;7.238;2022-08-03T09:08:29;2.05;;;1.35;;
7883;SDS011;3987;51.458;7.238;2022-08-03T09:10:55;2.72;;;1.52;;
7883;SDS011;3987;51.458;7.238;2022-08-03T09:13:20;1.33;;;1.33;;
7883;SDS011;3987;51.458;7.238;2022-08-03T09:15:46;2.50;;;1.20;;
7883;SDS011;3987;51.458;7.238;2022-08-03T09:18:27;1.75;;;1.40;;
7883;SDS011;3987;51.458;7.238;2022-08-03T09:20:54;4.18;;;1.20;;
7883;SDS011;3987;51.458;7.238;2022-08-03T09:23:42;1.88;;;1.30;;
7883;SDS011;3987;51.458;7.238;2022-08-03T09:26:09;2.30;;;1.35;;
7883;SDS011;3987;51.458;7.238;2022-08-03T09:28:35;1.50;;;1.40;;
7883;SDS011;3987;51.458;7.238;2022-08-03T09:31:00;3.25;;;1.50;;
7883;SDS011;3987;51.458;7.238;2022-08-03T09:33:26;2.30;;;1.30;;
7883;SDS011;3987;51.458;7.238;2022-08-03T09:35:51;3.72;;;1.20;;
7883;SDS011;3987;51.458;7.238;2022-08-03T09:40:51;2.10;;;1.10;;
7883;SDS011;3987;51.458;7.238;2022-08-03T09:43:18;5.15;;;1.30;;
7883;SDS011;3987;51.458;7.238;2022-08-03T09:45:44;1.45;;;1.30;;
7883;SDS011;3987;51.458;7.238;2022-08-03T09:50:54;1.05;;;1.05;;
7883;SDS011;3987;51.458;7.238;2022-08-03T09:53:23;1.48;;;1.20;;
7883;SDS011;3987;51.458;7.238;2022-08-03T09:55:56;1.58;;;1.13;;
7883;SDS011;3987;51.458;7.238;2022-08-03T09:58:25;1.35;;;1.27;;
7883;SDS011;3987;51.458;7.238;2022-08-03T10:00:52;1.65;;;1.20;;
7883;SDS011;3987;51.458;7.238;2022-08-03T10:03:18;1.23;;;1.20;;
7883;SDS011;3987;51.458;7.238;2022-08-03T10:05:44;1.63;;;1.10;;
7883;SDS011;3987;51.458;7.238;2022-08-03T10:08:16;2.45;;;1.40;;
7883;SDS011;3987;51.458;7.238;2022-08-03T10:10:43;2.33;;;1.20;;
7883;SDS011;3987;51.458;7.238;2022-08-03T10:13:10;4.40;;;1.33;;
7883;SDS011;3987;51.458;7.238;2022-08-03T10:15:38;5.32;;;1.27;;
7883;SDS011;3987;51.458;7.238;2022-08-03T10:18:04;1.92;;;1.23;;
7883;SDS011;3987;51.458;7.238;2022-08-03T10:20:29;1.90;;;1.10;;
7883;SDS011;3987;51.458;7.238;2022-08-03T10:22:56;3.90;;;1.23;;
7883;SDS011;3987;51.458;7.238;2022-08-03T10:25:21;1.23;;;0.93;;
7883;SDS011;3987;51.458;7.238;2022-08-03T10:27:47;1.00;;;1.00;;
7883;SDS011;3987;51.458;7.238;2022-08-03T10:30:14;2.78;;;1.25;;
7883;SDS011;3987;51.458;7.238;2022-08-03T10:32:40;1.88;;;0.80;;
7883;SDS011;3987;51.458;7.238;2022-08-03T10:35:24;1.33;;;1.20;;
7883;SDS011;3987;51.458;7.238;2022-08-03T10:40:21;2.42;;;1.30;;
7883;SDS011;3987;51.458;7.238;2022-08-03T10:42:48;1.42;;;1.08;;
7883;SDS011;3987;51.458;7.238;2022-08-03T10:45:19;1.02;;;0.82;;
7883;SDS011;3987;51.458;7.238;2022-08-03T10:47:48;2.80;;;1.00;;
7883;SDS011;3987;51.458;7.238;2022-08-03T10:50:14;2.08;;;1.02;;
7883;SDS011;3987;51.458;7.238;2022-08-03T10:52:53;1.10;;;1.10;;
7883;SDS011;3987;51.458;7.238;2022-08-03T10:55:29;2.10;;;1.33;;
7883;SDS011;3987;51.458;7.238;2022-08-03T11:01:16;1.30;;;1.20;;
7883;SDS011;3987;51.458;7.238;2022-08-03T11:06:18;1.98;;;1.30;;
7883;SDS011;3987;51.458;7.238;2022-08-03T11:08:44;5.45;;;1.58;;
7883;SDS011;3987;51.458;7.238;2022-08-03T11:16:29;2.65;;;1.52;;
7883;SDS011;3987;51.458;7.238;2022-08-03T11:19:00;4.90;;;1.33;;
7883;SDS011;3987;51.458;7.238;2022-08-03T11:27:16;1.85;;;0.95;;
7883;SDS011;3987;51.458;7.238;2022-08-03T11:35:12;2.83;;;1.05;;
7883;SDS011;3987;51.458;7.238;2022-08-03T11:46:07;5.20;;;1.02;;
7883;SDS011;3987;51.458;7.238;2022-08-03T11:48:50;3.00;;;1.00;;
7883;SDS011;3987;51.458;7.238;2022-08-03T11:51:22;3.10;;;0.75;;
7883;SDS011;3987;51.458;7.238;2022-08-03T11:53:52;2.88;;;1.00;;
7883;SDS011;3987;51.458;7.238;2022-08-03T11:56:21;3.53;;;0.77;;
7883;SDS011;3987;51.458;7.238;2022-08-03T11:58:47;3.53;;;0.82;;
7883;SDS011;3987;51.458;7.238;2022-08-03T12:01:13;3.40;;;1.00;;
7883;SDS011;3987;51.458;7.238;2022-08-03T12:03:41;2.25;;;0.90;;
7883;SDS011;3987;51.458;7.238;2022-08-03T12:06:10;1.27;;;1.17;;
7883;SDS011;3987;51.458;7.238;2022-08-03T12:08:36;2.92;;;0.98;;
7883;SDS011;3987;51.458;7.238;2022-08-03T12:11:03;2.67;;;0.73;;
7883;SDS011;3987;51.458;7.238;2022-08-03T12:13:43;2.40;;;0.73;;
7883;SDS011;3987;51.458;7.238;2022-08-03T12:16:20;2.10;;;0.70;;
7883;SDS011;3987;51.458;7.238;2022-08-03T12:18:57;2.00;;;0.93;;
7883;SDS011;3987;51.458;7.238;2022-08-03T12:21:23;1.73;;;0.68;;
7883;SDS011;3987;51.458;7.238;2022-08-03T12:23:49;1.15;;;0.60;;
7883;SDS011;3987;51.458;7.238;2022-08-03T12:26:14;1.38;;;0.77;;
7883;SDS011;3987;51.458;7.238;2022-08-03T12:28:46;3.70;;;0.63;;
7883;SDS011;3987;51.458;7.238;2022-08-03T12:31:12;2.83;;;0.52;;
7883;SDS011;3987;51.458;7.238;2022-08-03T12:33:53;2.15;;;0.52;;
7883;SDS011;3987;51.458;7.238;2022-08-03T12:36:19;1.38;;;0.60;;
7883;SDS011;3987;51.458;7.238;2022-08-03T12:38:44;1.83;;;0.50;;
7883;SDS011;3987;51.458;7.238;2022-08-03T12:43:54;1.73;;;0.47;;
7883;SDS011;3987;51.458;7.238;2022-08-03T12:46:20;3.15;;;0.82;;
7883;SDS011;3987;51.458;7.238;2022-08-03T12:49:05;1.50;;;0.52;;
7883;SDS011;3987;51.458;7.238;2022-08-03T12:52:14;1.45;;;0.60;;
7883;SDS011;3987;51.458;7.238;2022-08-03T12:54:23;1.20;;;0.60;;
7883;SDS011;3987;51.458;7.238;2022-08-03T12:59:28;2.15;;;0.85;;
7883;SDS011;3987;51.458;7.238;2022-08-03T13:01:55;0.90;;;0.55;;
7883;SDS011;3987;51.458;7.238;2022-08-03T13:04:24;1.00;;;0.52;;
7883;SDS011;3987;51.458;7.238;2022-08-03T13:06:57;2.72;;;0.90;;
7883;SDS011;3987;51.458;7.238;2022-08-03T13:09:27;0.55;;;0.55;;
7883;SDS011;3987;51.458;7.238;2022-08-03T13:12:03;1.58;;;0.50;;
7883;SDS011;3987;51.458;7.238;2022-08-03T13:14:31;1.23;;;0.63;;
7883;SDS011;3987;51.458;7.238;2022-08-03T13:16:56;0.50;;;0.40;;
7883;SDS011;3987;51.458;7.238;2022-08-03T13:19:22;4.82;;;1.00;;
7883;SDS011;3987;51.458;7.238;2022-08-03T13:21:47;1.98;;;0.55;;
7883;SDS011;3987;51.458;7.238;2022-08-03T13:24:13;0.93;;;0.70;;
7883;SDS011;3987;51.458;7.238;2022-08-03T13:26:39;1.75;;;0.60;;
7883;SDS011;3987;51.458;7.238;2022-08-03T13:29:04;1.83;;;0.70;;
7883;SDS011;3987;51.458;7.238;2022-08-03T13:31:30;1.08;;;0.40;;
7883;SDS011;3987;51.458;7.238;2022-08-03T13:33:55;1.90;;;0.65;;
7883;SDS011;3987;51.458;7.238;2022-08-03T13:36:21;2.17;;;0.70;;
7883;SDS011;3987;51.458;7.238;2022-08-03T13:38:46;1.00;;;0.60;;
7883;SDS011;3987;51.458;7.238;2022-08-03T13:41:12;1.65;;;0.75;;
7883;SDS011;3987;51.458;7.238;2022-08-03T13:43:37;0.65;;;0.57;;
7883;SDS011;3987;51.458;7.238;2022-08-03T13:46:03;1.27;;;0.60;;
7883;SDS011;3987;51.458;7.238;2022-08-03T13:48:28;5.43;;;0.77;;
7883;SDS011;3987;51.458;7.238;2022-08-03T13:50:54;0.75;;;0.57;;
7883;SDS011;3987;51.458;7.238;2022-08-03T13:53:19;2.75;;;0.63;;
7883;SDS011;3987;51.458;7.238;2022-08-03T13:55:44;2.50;;;0.85;;
7883;SDS011;3987;51.458;7.238;2022-08-03T13:58:10;1.15;;;0.60;;
7883;SDS011;3987;51.458;7.238;2022-08-03T14:00:36;1.98;;;0.82;;
7883;SDS011;3987;51.458;7.238;2022-08-03T14:03:02;1.20;;;0.55;;
7883;SDS011;3987;51.458;7.238;2022-08-03T14:05:28;1.00;;;0.45;;
7883;SDS011;3987;51.458;7.238;2022-08-03T14:07:55;1.45;;;0.85;;
7883;SDS011;3987;51.458;7.238;2022-08-03T14:10:21;0.98;;;0.63;;
7883;SDS011;3987;51.458;7.238;2022-08-03T14:12:46;1.63;;;0.45;;
7883;SDS011;3987;51.458;7.238;2022-08-03T14:15:12;2.08;;;0.70;;
7883;SDS011;3987;51.458;7.238;2022-08-03T14:17:38;3.58;;;0.60;;
7883;SDS011;3987;51.458;7.238;2022-08-03T14:20:05;1.40;;;0.68;;
7883;SDS011;3987;51.458;7.238;2022-08-03T14:22:31;1.90;;;0.68;;
7883;SDS011;3987;51.458;7.238;2022-08-03T14:24:57;0.85;;;0.82;;
7883;SDS011;3987;51.458;7.238;2022-08-03T14:27:22;2.05;;;0.50;;
7883;SDS011;3987;51.458;7.238;2022-08-03T14:29:47;0.93;;;0.60;;
7883;SDS011;3987;51.458;7.238;2022-08-03T14:32:13;3.28;;;0.77;;
7883;SDS011;3987;51.458;7.238;2022-08-03T14:34:39;1.73;;;0.65;;
7883;SDS011;3987;51.458;7.238;2022-08-03T14:37:04;2.55;;;0.82;;
7883;SDS011;3987;51.458;7.238;2022-08-03T14:39:30;2.20;;;0.70;;
7883;SDS011;3987;51.458;7.238;2022-08-03T14:41:55;1.50;;;0.63;;
7883;SDS011;3987;51.458;7.238;2022-08-03T14:44:20;1.42;;;0.70;;
7883;SDS011;3987;51.458;7.238;2022-08-03T14:46:46;2.05;;;1.00;;
7883;SDS011;3987;51.458;7.238;2022-08-03T14:49:11;1.60;;;0.60;;
7883;SDS011;3987;51.458;7.238;2022-08-03T14:51:37;0.93;;;0.85;;
7883;SDS011;3987;51.458;7.238;2022-08-03T14:54:02;2.17;;;0.75;;
7883;SDS011;3987;51.458;7.238;2022-08-03T14:56:28;1.17;;;0.77;;
7883;SDS011;3987;51.458;7.238;2022-08-03T14:58:53;1.73;;;0.73;;
7883;SDS011;3987;51.458;7.238;2022-08-03T15:01:18;1.60;;;0.68;;
7883;SDS011;3987;51.458;7.238;2022-08-03T15:03:44;1.27;;;0.63;;
7883;SDS011;3987;51.458;7.238;2022-08-03T15:06:11;3.15;;;0.93;;
7883;SDS011;3987;51.458;7.238;2022-08-03T15:08:37;1.85;;;0.70;;
7883;SDS011;3987;51.458;7.238;2022-08-03T15:11:02;1.83;;;0.80;;
7883;SDS011;3987;51.458;7.238;2022-08-03T15:13:27;1.77;;;0.85;;
7883;SDS011;3987;51.458;7.238;2022-08-03T15:15:53;0.95;;;0.73;;
7883;SDS011;3987;51.458;7.238;2022-08-03T15:18:18;1.25;;;0.77;;
7883;SDS011;3987;51.458;7.238;2022-08-03T15:20:44;4.25;;;0.85;;
7883;SDS011;3987;51.458;7.238;2022-08-03T15:23:10;2.38;;;0.80;;
7883;SDS011;3987;51.458;7.238;2022-08-03T15:25:36;3.47;;;1.10;;
7883;SDS011;3987;51.458;7.238;2022-08-03T15:28:01;1.85;;;0.88;;
7883;SDS011;3987;51.458;7.238;2022-08-03T15:30:27;1.42;;;0.52;;
7883;SDS011;3987;51.458;7.238;2022-08-03T15:32:52;1.42;;;0.60;;
7883;SDS011;3987;51.458;7.238;2022-08-03T15:35:17;2.03;;;0.90;;
7883;SDS011;3987;51.458;7.238;2022-08-03T15:37:44;1.13;;;0.85;;
7883;SDS011;3987;51.458;7.238;2022-08-03T15:40:10;1.25;;;0.60;;
7883;SDS011;3987;51.458;7.238;2022-08-03T15:42:36;2.03;;;0.85;;
7883;SDS011;3987;51.458;7.238;2022-08-03T15:45:02;1.98;;;0.77;;
7883;SDS011;3987;51.458;7.238;2022-08-03T15:47:28;2.75;;;0.82;;
7883;SDS011;3987;51.458;7.238;2022-08-03T15:49:53;1.63;;;0.57;;
7883;SDS011;3987;51.458;7.238;2022-08-03T15:52:18;3.60;;;0.68;;
7883;SDS011;3987;51.458;7.238;2022-08-03T15:54:44;1.50;;;0.90;;
7883;SDS011;3987;51.458;7.238;2022-08-03T15:57:09;3.78;;;0.70;;
7883;SDS011;3987;51.458;7.238;2022-08-03T15:59:35;1.05;;;0.57;;
7883;SDS011;3987;51.458;7.238;2022-08-03T16:02:00;1.67;;;0.60;;
7883;SDS011;3987;51.458;7.238;2022-08-03T16:04:26;2.15;;;0.57;;
7883;SDS011;3987;51.458;7.238;2022-08-03T16:06:51;9.20;;;1.13;;
7883;SDS011;3987;51.458;7.238;2022-08-03T16:09:17;2.15;;;0.70;;
7883;SDS011;3987;51.458;7.238;2022-08-03T16:11:42;1.23;;;0.80;;